Time;durP1;ratioP1;P1;durP2;ratioP2;P2;SDS_P1;SDS_P2;PMS_P1;PMS_P2;Temp;Humidity;BMP_temperature;BMP_pressure;BME280_temperature;BME280_humidity;BME280_pressure;Samples;Min_cycle;Max_cycle;Signal;HPM_P1;HPM_P2
2020/12/07 00:01:47;;;;;;;4.40;3.30;;;1.80;99.90;;;;;;8290858;28;20096;-67
2020/12/07 00:05:48;;;;;;;5.07;3.53;;;1.90;99.90;;;;;;8291231;28;20021;-67
2020/12/07 00:09:48;;;;;;;5.22;3.90;;;1.90;99.90;;;;;;8290074;28;20042;-67
2020/12/07 00:13:49;;;;;;;5.28;3.90;;;2.00;99.90;;;;;;8290855;28;20572;-66
2020/12/07 00:17:52;;;;;;;4.72;3.72;;;2.00;99.90;;;;;;8289353;28;20041;-67
2020/12/07 00:21:52;;;;;;;4.70;3.63;;;2.30;99.90;;;;;;8275695;28;20023;-68
2020/12/07 00:25:53;;;;;;;4.30;3.75;;;2.10;99.90;;;;;;8258305;28;20022;-67
2020/12/07 00:29:54;;;;;;;5.22;3.72;;;2.00;99.90;;;;;;8256805;28;20026;-67
2020/12/07 00:33:58;;;;;;;4.32;3.78;;;2.10;99.90;;;;;;8277733;28;20029;-66
2020/12/07 00:37:59;;;;;;;4.50;3.55;;;2.20;99.90;;;;;;8296371;28;20378;-67
2020/12/07 00:41:59;;;;;;;4.60;3.60;;;2.20;99.90;;;;;;8295260;28;20022;-67
2020/12/07 00:46:00;;;;;;;5.25;4.05;;;2.10;99.90;;;;;;8297455;28;20022;-68
2020/12/07 00:50:00;;;;;;;5.53;4.07;;;1.90;99.90;;;;;;8296944;28;20041;-68
2020/12/07 00:54:01;;;;;;;4.00;3.45;;;2.00;99.90;;;;;;8299114;28;20072;-67
2020/12/07 00:58:01;;;;;;;5.15;4.07;;;2.10;99.90;;;;;;8297774;28;20018;-66
2020/12/07 01:02:02;;;;;;;4.70;3.53;;;2.20;99.90;;;;;;8299279;28;20098;-67
2020/12/07 01:06:03;;;;;;;4.30;3.17;;;2.00;99.90;;;;;;8297986;28;20025;-67
2020/12/07 01:10:04;;;;;;;4.05;3.03;;;2.20;99.90;;;;;;8299078;28;20474;-68
2020/12/07 01:14:04;;;;;;;4.25;3.42;;;2.00;99.90;;;;;;8299292;28;20038;-68
2020/12/07 01:18:05;;;;;;;4.57;3.67;;;2.10;99.90;;;;;;8299284;28;20102;-67
2020/12/07 01:22:06;;;;;;;4.40;3.53;;;2.00;99.90;;;;;;8298618;28;20022;-68
2020/12/07 01:26:08;;;;;;;5.22;3.95;;;2.00;99.90;;;;;;8298996;28;20061;-67
2020/12/07 01:30:08;;;;;;;4.22;3.38;;;2.00;99.90;;;;;;8295495;28;20545;-68
2020/12/07 01:34:09;;;;;;;4.40;3.97;;;2.00;99.90;;;;;;8298526;28;20092;-66
2020/12/07 01:38:09;;;;;;;4.55;3.72;;;1.90;99.90;;;;;;8298319;28;20061;-67
2020/12/07 01:42:10;;;;;;;4.40;3.40;;;1.90;99.90;;;;;;8297938;28;20153;-67
2020/12/07 01:46:15;;;;;;;4.82;3.53;;;1.90;99.90;;;;;;8296481;28;20060;-67
2020/12/07 01:50:16;;;;;;;4.03;3.25;;;2.00;99.90;;;;;;8298002;28;20022;-68
2020/12/07 01:54:17;;;;;;;4.88;3.50;;;1.90;99.90;;;;;;8296447;28;20022;-67
2020/12/07 01:58:18;;;;;;;4.25;3.25;;;1.90;99.90;;;;;;8296116;28;20029;-68
2020/12/07 02:02:19;;;;;;;3.85;3.30;;;1.90;99.90;;;;;;8297302;28;20424;-67
2020/12/07 02:06:20;;;;;;;4.68;3.67;;;1.90;99.90;;;;;;8297471;28;20129;-67
2020/12/07 02:10:20;;;;;;;3.45;2.85;;;2.00;99.90;;;;;;8296759;28;20041;-67
2020/12/07 02:14:21;;;;;;;3.83;3.20;;;1.90;99.90;;;;;;8295886;28;20133;-67
2020/12/07 02:18:22;;;;;;;2.22;1.65;;;1.90;99.90;;;;;;8295849;28;20399;-67
2020/12/07 02:22:22;;;;;;;3.08;2.40;;;1.90;99.90;;;;;;8297010;28;20022;-67
2020/12/07 02:26:23;;;;;;;2.95;2.25;;;1.90;99.90;;;;;;8295719;28;20029;-67
2020/12/07 02:30:24;;;;;;;3.40;2.78;;;1.90;99.90;;;;;;8296657;28;20076;-67
2020/12/07 02:34:24;;;;;;;3.35;2.63;;;1.80;99.90;;;;;;8293746;28;20545;-67
2020/12/07 02:38:25;;;;;;;3.70;2.72;;;1.70;99.90;;;;;;8296433;28;20054;-67
2020/12/07 02:42:25;;;;;;;5.22;2.65;;;1.80;99.90;;;;;;8294448;28;20022;-67
2020/12/07 02:46:28;;;;;;;3.42;2.50;;;1.90;99.90;;;;;;8295107;28;20022;-66
2020/12/07 02:50:28;;;;;;;2.92;2.45;;;1.90;99.90;;;;;;8292470;28;20038;-67
2020/12/07 02:54:29;;;;;;;1.88;1.67;;;1.80;99.90;;;;;;8292679;28;20037;-67
2020/12/07 02:58:29;;;;;;;2.88;2.15;;;1.80;99.90;;;;;;8291747;28;20041;-67
2020/12/07 03:02:31;;;;;;;2.30;1.83;;;2.00;99.90;;;;;;8291142;28;20050;-66
2020/12/07 03:06:31;;;;;;;2.60;2.40;;;2.00;99.90;;;;;;8289790;28;20697;-67
2020/12/07 03:10:32;;;;;;;1.83;1.60;;;1.90;99.90;;;;;;8292485;28;20033;-67
2020/12/07 03:14:34;;;;;;;1.90;1.70;;;2.00;99.90;;;;;;8292213;28;20127;-67
2020/12/07 03:18:34;;;;;;;1.40;1.30;;;1.90;99.90;;;;;;8290816;28;20130;-67
2020/12/07 03:22:35;;;;;;;1.50;1.40;;;1.80;99.90;;;;;;8290109;28;20411;-66
2020/12/07 03:26:36;;;;;;;1.23;1.13;;;1.80;99.90;;;;;;8291771;28;20072;-66
2020/12/07 03:30:36;;;;;;;1.67;1.40;;;1.90;99.90;;;;;;8292015;28;20037;-67
2020/12/07 03:34:37;;;;;;;1.48;1.38;;;1.80;99.90;;;;;;8289738;28;20151;-67
2020/12/07 03:38:37;;;;;;;1.40;1.30;;;1.90;99.90;;;;;;8291705;28;20026;-66
2020/12/07 03:42:38;;;;;;;1.67;1.20;;;2.00;99.90;;;;;;8290567;28;20380;-66
2020/12/07 03:46:38;;;;;;;1.60;1.40;;;1.80;99.90;;;;;;8290463;28;20030;-67
2020/12/07 03:50:39;;;;;;;1.58;1.48;;;1.90;99.90;;;;;;8289928;28;20033;-67
2020/12/07 03:54:39;;;;;;;1.67;1.58;;;1.90;99.90;;;;;;8291235;28;20037;-67
2020/12/07 03:58:40;;;;;;;1.73;1.50;;;1.80;99.90;;;;;;8291014;28;20076;-67
2020/12/07 04:02:41;;;;;;;1.40;1.30;;;1.80;99.90;;;;;;8290946;28;20048;-67
2020/12/07 04:06:43;;;;;;;1.80;1.50;;;1.80;99.90;;;;;;8291152;28;20100;-68
2020/12/07 04:10:44;;;;;;;1.67;1.55;;;1.80;99.90;;;;;;8290731;28;20018;-67
2020/12/07 04:14:44;;;;;;;1.50;1.40;;;1.80;99.90;;;;;;8291059;28;20491;-68
2020/12/07 04:18:45;;;;;;;2.42;1.92;;;1.90;99.90;;;;;;8290737;28;20030;-67
2020/12/07 04:22:46;;;;;;;2.00;1.75;;;1.90;99.90;;;;;;8290694;28;20480;-68
2020/12/07 04:26:46;;;;;;;2.30;2.10;;;1.90;99.90;;;;;;8289490;28;20030;-67
2020/12/07 04:30:47;;;;;;;2.60;2.40;;;1.90;99.90;;;;;;8286086;28;20078;-67
2020/12/07 04:34:48;;;;;;;2.13;1.92;;;1.90;99.90;;;;;;8289621;28;20028;-67
2020/12/07 04:38:48;;;;;;;2.10;1.90;;;2.00;99.90;;;;;;8293641;28;20529;-68
2020/12/07 04:42:50;;;;;;;2.25;2.05;;;1.90;99.90;;;;;;8293403;28;20032;-67
2020/12/07 04:46:51;;;;;;;2.30;2.05;;;1.70;99.90;;;;;;8292759;28;20514;-67
2020/12/07 04:50:54;;;;;;;2.45;2.15;;;1.80;99.90;;;;;;8291803;28;20077;-68
2020/12/07 04:54:56;;;;;;;2.65;2.30;;;1.80;99.90;;;;;;8292836;28;20064;-67
2020/12/07 04:58:57;;;;;;;3.08;2.63;;;1.80;99.90;;;;;;8290067;28;20026;-67
2020/12/07 05:02:59;;;;;;;2.88;2.58;;;1.90;99.90;;;;;;8282632;28;20033;-67
2020/12/07 05:07:04;;;;;;;2.88;2.55;;;2.10;99.90;;;;;;8292054;28;20030;-67
2020/12/07 05:11:04;;;;;;;3.22;2.42;;;2.10;99.90;;;;;;8292563;28;20628;-67
2020/12/07 05:15:10;;;;;;;2.88;2.00;;;2.00;99.90;;;;;;8292901;28;20116;-66
2020/12/07 05:19:11;;;;;;;3.70;2.90;;;1.80;99.90;;;;;;8292881;28;20468;-68
2020/12/07 05:23:15;;;;;;;5.15;3.65;;;1.80;99.90;;;;;;8296849;28;20030;-67
2020/12/07 05:27:18;;;;;;;5.43;3.65;;;1.80;99.90;;;;;;8298443;28;20818;-68
2020/12/07 05:31:21;;;;;;;5.80;3.90;;;1.70;99.90;;;;;;8297020;28;20125;-68
2020/12/07 05:35:23;;;;;;;4.43;3.20;;;1.60;99.90;;;;;;8305044;28;20397;-67
2020/12/07 05:39:25;;;;;;;5.88;3.65;;;1.60;99.90;;;;;;8288440;28;20058;-68
2020/12/07 05:43:26;;;;;;;6.82;4.20;;;1.60;99.90;;;;;;8291130;28;20030;-68
2020/12/07 05:47:30;;;;;;;6.28;3.75;;;1.60;99.90;;;;;;8295949;28;20030;-67
2020/12/07 05:51:30;;;;;;;8.82;4.68;;;1.50;99.90;;;;;;8286408;28;20026;-67
2020/12/07 05:55:32;;;;;;;7.72;4.57;;;1.50;99.90;;;;;;8296415;28;20034;-68
2020/12/07 05:59:43;;;;;;;6.45;4.43;;;1.60;99.90;;;;;;8297069;28;20038;-68
2020/12/07 06:03:44;;;;;;;7.68;4.53;;;1.60;99.90;;;;;;8296805;28;20076;-68
2020/12/07 06:07:52;;;;;;;8.27;4.82;;;1.60;99.90;;;;;;8285242;28;20030;-69
2020/12/07 06:12:02;;;;;;;9.55;5.22;;;1.60;99.90;;;;;;8267203;28;20427;-68
2020/12/07 06:16:04;;;;;;;3.50;2.15;;;1.60;99.90;;;;;;8278978;28;20022;-68
2020/12/07 06:20:05;;;;;;;7.65;4.03;;;1.60;99.90;;;;;;8264797;28;20085;-68
2020/12/07 06:24:05;;;;;;;7.75;4.93;;;1.70;99.90;;;;;;8264892;28;20060;-68
2020/12/07 06:28:08;;;;;;;7.20;4.50;;;1.70;99.90;;;;;;8283411;28;20032;-69
2020/12/07 06:32:08;;;;;;;5.47;3.60;;;1.70;99.90;;;;;;8321584;28;20034;-68
2020/12/07 06:36:29;;;;;;;6.72;3.80;;;1.70;99.90;;;;;;8282974;28;20088;-68
2020/12/07 06:40:30;;;;;;;8.85;4.70;;;1.70;99.90;;;;;;8264157;28;20014;-68
2020/12/07 06:44:32;;;;;;;8.15;4.97;;;1.50;99.90;;;;;;8266404;28;20042;-69
2020/12/07 06:48:36;;;;;;;9.55;2.70;;;1.60;99.90;;;;;;8292419;28;20399;-68
2020/12/07 06:52:41;;;;;;;10.40;6.03;;;1.60;99.90;;;;;;8295561;28;20021;-69
2020/12/07 06:56:42;;;;;;;9.10;4.72;;;1.50;99.90;;;;;;8295977;28;20025;-69
2020/12/07 07:00:42;;;;;;;6.95;4.53;;;1.50;99.90;;;;;;8270026;28;20504;-65
2020/12/07 07:04:51;;;;;;;9.75;5.43;;;1.60;99.90;;;;;;8290960;28;20037;-66
2020/12/07 07:08:54;;;;;;;8.38;4.80;;;1.70;99.90;;;;;;8295322;28;20487;-66
2020/12/07 07:12:54;;;;;;;10.93;5.68;;;1.60;99.90;;;;;;8295440;28;20030;-70
2020/12/07 07:16:55;;;;;;;7.90;3.65;;;1.80;99.90;;;;;;8295686;28;20028;-70
2020/12/07 07:21:00;;;;;;;9.65;4.38;;;1.70;99.90;;;;;;8293625;28;20053;-69
2020/12/07 07:29:17;;;;;;;6.18;3.70;;;1.80;99.90;;;;;;8295389;28;20476;-69
2020/12/07 07:33:17;;;;;;;9.73;4.82;;;2.00;99.90;;;;;;8293675;28;20018;-69
2020/12/07 07:37:18;;;;;;;9.20;4.25;;;1.90;99.90;;;;;;8295163;28;20029;-69
2020/12/07 07:41:23;;;;;;;11.55;4.05;;;2.00;99.90;;;;;;8293662;28;20113;-69
2020/12/07 07:45:30;;;;;;;9.82;4.18;;;2.00;99.90;;;;;;8293436;28;20113;-69
2020/12/07 07:54:43;;;;;;;9.90;5.13;;;2.20;99.90;;;;;;8284338;28;20112;-69
2020/12/07 08:15:53;;;;;;;10.15;5.20;;;2.30;99.90;;;;;;8294418;28;20117;-69
2020/12/07 08:20:07;;;;;;;11.93;5.85;;;2.30;99.90;;;;;;8293998;28;20030;-68
2020/12/07 08:24:10;;;;;;;10.68;4.70;;;2.20;99.90;;;;;;8293903;28;20025;-70
2020/12/07 08:28:16;;;;;;;10.30;5.18;;;2.20;99.90;;;;;;8292125;28;20450;-69
2020/12/07 08:32:21;;;;;;;11.23;6.55;;;2.50;99.90;;;;;;8292268;28;20026;-69
2020/12/07 08:36:22;;;;;;;11.32;5.15;;;2.60;99.90;;;;;;8269449;28;20121;-69
2020/12/07 08:40:22;;;;;;;7.70;4.03;;;2.70;99.90;;;;;;8260721;28;20391;-69
2020/12/07 08:44:23;;;;;;;4.75;2.88;;;2.70;99.90;;;;;;8293410;28;20041;-69
2020/12/07 08:48:23;;;;;;;3.92;1.90;;;2.70;99.90;;;;;;8293441;28;20022;-70
2020/12/07 08:52:24;;;;;;;5.15;2.30;;;2.80;99.90;;;;;;8293036;28;20550;-69
2020/12/07 08:56:24;;;;;;;4.88;3.10;;;2.70;99.90;;;;;;8293371;28;20056;-70
2020/12/07 09:00:25;;;;;;;6.65;3.13;;;2.80;99.90;;;;;;8299656;28;20053;-68
2020/12/07 09:04:25;;;;;;;6.47;2.80;;;3.20;99.90;;;;;;8298232;28;20057;-69
2020/12/07 09:08:26;;;;;;;8.05;3.90;;;3.20;99.90;;;;;;8298324;28;20049;-69
2020/12/07 09:12:27;;;;;;;12.07;5.90;;;3.20;99.90;;;;;;8296129;28;20068;-70
2020/12/07 09:16:27;;;;;;;3.33;2.30;;;3.20;99.90;;;;;;8298009;28;20404;-69
2020/12/07 09:20:28;;;;;;;3.95;2.30;;;3.30;99.90;;;;;;8299280;28;20034;-70
2020/12/07 09:24:28;;;;;;;4.55;2.42;;;3.30;99.90;;;;;;8297488;28;20061;-69
2020/12/07 09:28:30;;;;;;;6.20;3.58;;;3.40;99.90;;;;;;8298743;28;20057;-69
2020/12/07 09:32:30;;;;;;;8.63;5.07;;;3.70;99.90;;;;;;8297107;28;20125;-69
2020/12/07 09:36:31;;;;;;;36.45;17.98;;;3.60;99.90;;;;;;8297447;28;20373;-70
2020/12/07 09:40:31;;;;;;;12.07;5.85;;;3.50;99.90;;;;;;8298249;28;20064;-69
2020/12/07 09:44:32;;;;;;;7.40;2.90;;;3.50;99.90;;;;;;8297087;28;20026;-69
2020/12/07 09:48:32;;;;;;;23.60;11.38;;;3.70;99.90;;;;;;8298334;28;20026;-69
2020/12/07 09:52:34;;;;;;;3.75;2.53;;;3.90;99.90;;;;;;8297595;28;20446;-69
2020/12/07 09:56:34;;;;;;;3.92;2.30;;;3.80;99.90;;;;;;8297419;28;20026;-70
2020/12/07 10:00:35;;;;;;;4.93;2.42;;;3.70;99.90;;;;;;8297519;28;20018;-70
2020/12/07 10:04:36;;;;;;;4.78;3.10;;;3.70;99.90;;;;;;8295834;28;20132;-69
2020/12/07 10:08:36;;;;;;;5.03;3.05;;;4.00;99.90;;;;;;8296215;28;20030;-70
2020/12/07 10:12:37;;;;;;;7.35;3.83;;;4.10;99.90;;;;;;8297294;28;20057;-69
2020/12/07 10:16:40;;;;;;;8.52;4.50;;;4.30;99.90;;;;;;8297516;28;20034;-70
2020/12/07 10:20:41;;;;;;;4.47;3.22;;;4.30;99.90;;;;;;8297046;28;20022;-69
2020/12/07 10:24:41;;;;;;;5.90;3.65;;;4.50;99.90;;;;;;8297649;28;20032;-69
2020/12/07 10:28:42;;;;;;;6.13;3.47;;;4.50;99.90;;;;;;8295584;28;20034;-69
2020/12/07 10:32:42;;;;;;;9.98;4.07;;;4.40;99.90;;;;;;8290670;28;20022;-70
2020/12/07 10:36:47;;;;;;;5.85;3.50;;;4.40;99.90;;;;;;8279879;28;20060;-69
2020/12/07 10:40:48;;;;;;;7.03;4.40;;;4.50;99.90;;;;;;8292936;28;20030;-69
2020/12/07 10:44:48;;;;;;;6.25;3.45;;;4.40;99.90;;;;;;8295173;28;20030;-68
2020/12/07 10:48:49;;;;;;;4.43;3.05;;;4.30;99.90;;;;;;8294892;28;20022;-70
2020/12/07 10:52:50;;;;;;;3.75;2.72;;;4.40;99.90;;;;;;8295512;28;20147;-69
2020/12/07 10:56:50;;;;;;;8.60;4.25;;;4.40;99.90;;;;;;8295763;28;20022;-69
2020/12/07 11:00:52;;;;;;;11.43;5.60;;;4.30;99.90;;;;;;8295891;28;20025;-70
2020/12/07 11:04:52;;;;;;;15.65;7.32;;;4.20;99.90;;;;;;8295805;28;20026;-69
2020/12/07 11:08:55;;;;;;;5.50;3.17;;;4.10;99.90;;;;;;8295721;28;20112;-70
2020/12/07 11:13:04;;;;;;;4.35;2.72;;;3.90;99.90;;;;;;8295433;28;20443;-69
2020/12/07 11:17:05;;;;;;;3.58;2.53;;;3.70;99.90;;;;;;8264939;28;20116;-70
2020/12/07 11:21:15;;;;;;;3.90;2.65;;;3.70;99.90;;;;;;8261079;28;20480;-70
2020/12/07 11:25:15;;;;;;;4.35;2.70;;;3.80;99.90;;;;;;8261535;28;20050;-69
2020/12/07 11:29:16;;;;;;;5.70;3.60;;;4.20;99.90;;;;;;8262624;28;20052;-69
2020/12/07 11:33:16;;;;;;;4.93;3.40;;;4.50;99.90;;;;;;8277245;28;20030;-70
2020/12/07 11:37:17;;;;;;;4.18;2.55;;;4.70;99.90;;;;;;8293920;28;20022;-70
2020/12/07 11:41:44;;;;;;;3.13;2.35;;;4.90;99.90;;;;;;8294330;28;20030;-69
2020/12/07 11:45:44;;;;;;;3.78;2.63;;;5.00;99.90;;;;;;8293438;28;20373;-69
2020/12/07 11:49:48;;;;;;;4.65;3.00;;;4.70;99.90;;;;;;8293976;28;20034;-69
2020/12/07 11:53:50;;;;;;;4.93;3.30;;;4.50;99.90;;;;;;8293373;28;20072;-68
2020/12/07 11:57:51;;;;;;;6.18;3.13;;;4.20;99.90;;;;;;8293016;28;20026;-69
2020/12/07 12:01:51;;;;;;;4.78;3.08;;;4.30;99.90;;;;;;8292646;28;20518;-70
2020/12/07 12:05:52;;;;;;;66.07;29.85;;;4.70;99.90;;;;;;8294013;28;20036;-70
2020/12/07 12:09:53;;;;;;;31.33;14.43;;;4.80;99.90;;;;;;8294349;28;20479;-70
2020/12/07 12:13:54;;;;;;;44.60;23.35;;;4.90;99.90;;;;;;8294319;28;20045;-70
2020/12/07 12:17:55;;;;;;;5.93;4.57;;;4.80;99.90;;;;;;8294243;28;20058;-70
2020/12/07 12:21:55;;;;;;;4.70;3.63;;;4.80;99.90;;;;;;8290744;28;20053;-69
2020/12/07 12:25:56;;;;;;;5.85;4.20;;;4.90;99.90;;;;;;8276495;28;20039;-69
2020/12/07 12:29:57;;;;;;;7.00;5.57;;;4.80;99.90;;;;;;8274133;28;20085;-70
2020/12/07 12:33:57;;;;;;;9.80;7.90;;;5.00;99.90;;;;;;8284609;28;20022;-70
2020/12/07 12:37:58;;;;;;;6.68;5.35;;;5.00;99.90;;;;;;8282291;28;20029;-70
2020/12/07 12:41:58;;;;;;;10.80;7.72;;;5.00;99.90;;;;;;8281972;28;20021;-69
2020/12/07 12:45:59;;;;;;;10.57;7.18;;;5.00;99.90;;;;;;8281534;28;20052;-69
2020/12/07 12:49:59;;;;;;;8.85;6.80;;;5.20;99.90;;;;;;8284054;28;20026;-70
2020/12/07 12:54:01;;;;;;;12.48;8.73;;;5.10;99.90;;;;;;8297638;28;20049;-69
2020/12/07 12:58:01;;;;;;;12.60;8.48;;;5.00;99.90;;;;;;8299165;28;20022;-70
2020/12/07 13:02:02;;;;;;;9.20;6.70;;;5.10;99.90;;;;;;8299053;28;20438;-70
2020/12/07 13:06:03;;;;;;;14.18;8.05;;;5.00;99.90;;;;;;8298635;28;20079;-71
2020/12/07 13:10:04;;;;;;;8.52;5.50;;;5.00;99.90;;;;;;8298312;28;20021;-70
2020/12/07 13:14:04;;;;;;;6.97;5.43;;;4.90;99.90;;;;;;8297778;28;20488;-69
2020/12/07 13:18:08;;;;;;;8.02;6.03;;;5.10;99.90;;;;;;8298176;28;20018;-69
2020/12/07 13:30:26;;;;;;;8.15;5.90;;;4.70;99.90;;;;;;8298903;28;20049;-69
2020/12/07 13:34:27;;;;;;;9.10;6.25;;;4.30;99.90;;;;;;8297604;28;20053;-69
2020/12/07 13:38:29;;;;;;;8.13;5.68;;;4.10;99.90;;;;;;8298816;28;20029;-69
2020/12/07 13:42:30;;;;;;;8.43;5.82;;;4.10;99.90;;;;;;8296561;28;20024;-70
2020/12/07 13:46:30;;;;;;;10.13;6.45;;;4.00;99.90;;;;;;8297825;28;20482;-69
2020/12/07 13:50:31;;;;;;;8.88;6.40;;;4.00;99.90;;;;;;8296929;28;20037;-70
2020/12/07 13:54:32;;;;;;;7.50;5.25;;;4.00;99.90;;;;;;8298068;28;20542;-69
2020/12/07 13:58:32;;;;;;;7.25;5.28;;;3.80;99.90;;;;;;8298214;28;20143;-70
2020/12/07 14:02:33;;;;;;;9.05;5.90;;;3.70;99.90;;;;;;8296594;28;20030;-70
2020/12/07 14:06:34;;;;;;;9.10;6.05;;;3.60;99.90;;;;;;8297857;28;20400;-69
2020/12/07 14:10:34;;;;;;;8.02;5.57;;;3.70;99.90;;;;;;8297102;28;20030;-70
2020/12/07 14:14:35;;;;;;;7.97;5.43;;;3.90;99.90;;;;;;8296009;28;20041;-70
2020/12/07 14:18:45;;;;;;;8.50;6.05;;;4.10;99.90;;;;;;8293347;28;20101;-70
2020/12/07 14:22:55;;;;;;;6.70;5.20;;;4.20;99.90;;;;;;8294816;28;20018;-70
2020/12/07 14:40:07;;;;;;;8.40;5.47;;;4.50;99.90;;;;;;8293901;28;20036;-70
2020/12/07 14:44:07;;;;;;;9.07;5.63;;;4.30;99.90;;;;;;8293782;28;20045;-71
2020/12/07 14:48:10;;;;;;;7.18;5.32;;;4.20;99.90;;;;;;8271034;28;20041;-70
2020/12/07 14:52:12;;;;;;;7.80;5.22;;;4.10;99.90;;;;;;8274556;28;20040;-71
2020/12/07 14:56:24;;;;;;;8.27;5.20;;;3.80;99.90;;;;;;8280771;28;20491;-71
2020/12/07 15:17:18;;;;;;;8.63;5.10;;;3.50;99.90;;;;;;8292521;28;20026;-69
2020/12/07 15:21:19;;;;;;;8.15;5.43;;;3.40;99.90;;;;;;8292579;28;20060;-69
2020/12/07 15:25:20;;;;;;;8.32;5.70;;;3.30;99.90;;;;;;8295587;28;20026;-69
2020/12/07 15:29:20;;;;;;;7.85;5.13;;;3.10;99.90;;;;;;8295504;28;20052;-69
2020/12/07 15:33:21;;;;;;;11.23;6.43;;;3.10;99.90;;;;;;8295166;28;20034;-70
2020/12/07 15:37:22;;;;;;;11.15;6.28;;;3.10;99.90;;;;;;8295281;28;20108;-69
2020/12/07 15:41:22;;;;;;;12.50;6.07;;;2.90;99.90;;;;;;8293743;28;20026;-69
2020/12/07 15:45:23;;;;;;;9.38;5.95;;;3.00;99.90;;;;;;8293763;28;20025;-69
2020/12/07 15:49:23;;;;;;;9.85;6.57;;;2.80;99.90;;;;;;8294660;28;20034;-69
2020/12/07 15:53:24;;;;;;;10.88;6.63;;;2.60;99.90;;;;;;8294538;28;20058;-69
2020/12/07 15:57:24;;;;;;;11.25;6.68;;;2.50;99.90;;;;;;8294958;28;20494;-69
2020/12/07 16:01:25;;;;;;;12.27;7.07;;;2.40;99.90;;;;;;8293161;28;20029;-69
2020/12/07 16:05:26;;;;;;;11.35;5.90;;;2.40;99.90;;;;;;8293821;28;20041;-69
2020/12/07 16:09:27;;;;;;;11.93;6.38;;;2.40;99.90;;;;;;8292806;28;20026;-70
2020/12/07 16:13:28;;;;;;;11.05;6.85;;;2.50;99.90;;;;;;8293434;28;20037;-68
2020/12/07 16:17:28;;;;;;;13.40;7.13;;;2.70;99.90;;;;;;8292068;28;20080;-68
2020/12/07 16:21:29;;;;;;;17.20;9.45;;;2.40;99.90;;;;;;8293984;28;20022;-69
2020/12/07 16:25:29;;;;;;;10.55;6.72;;;2.40;99.90;;;;;;8294138;28;20034;-69
2020/12/07 16:29:30;;;;;;;10.25;6.40;;;2.30;99.90;;;;;;8294066;28;20030;-69
2020/12/07 16:33:30;;;;;;;16.05;8.50;;;2.30;99.90;;;;;;8292633;28;20026;-69
2020/12/07 16:37:31;;;;;;;15.88;8.18;;;2.30;99.90;;;;;;8294073;28;20026;-69
2020/12/07 16:41:32;;;;;;;14.15;6.78;;;2.30;99.90;;;;;;8293802;28;20038;-69
2020/12/07 16:45:33;;;;;;;11.15;6.75;;;2.40;99.90;;;;;;8294046;28;20475;-69
2020/12/07 16:49:33;;;;;;;10.65;6.45;;;2.60;99.90;;;;;;8293869;28;20026;-69
2020/12/07 16:53:34;;;;;;;14.82;7.60;;;2.30;99.90;;;;;;8293711;28;20062;-69
2020/12/07 16:57:34;;;;;;;14.20;7.13;;;2.00;99.90;;;;;;8293603;28;20049;-69
2020/12/07 17:01:35;;;;;;;12.40;7.28;;;2.10;99.90;;;;;;8293075;28;20022;-69
2020/12/07 17:05:35;;;;;;;29.60;19.02;;;2.10;99.90;;;;;;8291432;28;20026;-68
2020/12/07 17:09:37;;;;;;;14.93;8.68;;;2.20;99.90;;;;;;8285306;28;20034;-69
2020/12/07 17:13:37;;;;;;;12.93;7.38;;;2.20;99.90;;;;;;8289180;28;20037;-69
2020/12/07 17:17:38;;;;;;;11.77;7.55;;;2.10;99.90;;;;;;8290954;28;20611;-69
2020/12/07 17:21:38;;;;;;;14.85;8.50;;;2.10;99.90;;;;;;8295078;28;20030;-70
2020/12/07 17:25:39;;;;;;;13.38;8.00;;;2.10;99.90;;;;;;8296072;28;20045;-69
2020/12/07 17:29:39;;;;;;;15.23;8.40;;;2.10;99.90;;;;;;8295670;28;20080;-69
2020/12/07 17:33:40;;;;;;;13.73;8.57;;;2.00;99.90;;;;;;8294179;28;20103;-70
2020/12/07 17:37:40;;;;;;;14.70;8.65;;;2.10;99.90;;;;;;8295873;28;20030;-69
2020/12/07 17:41:41;;;;;;;13.10;7.80;;;2.20;99.90;;;;;;8295431;28;20076;-69
2020/12/07 17:45:42;;;;;;;13.95;7.75;;;2.20;99.90;;;;;;8294377;28;20034;-69
2020/12/07 17:49:42;;;;;;;14.38;8.50;;;2.10;99.90;;;;;;8283326;28;20451;-69
2020/12/07 17:53:43;;;;;;;14.07;8.07;;;2.20;99.90;;;;;;8287900;28;20415;-69
2020/12/07 17:57:43;;;;;;;14.43;8.48;;;2.30;99.90;;;;;;8292007;28;20038;-68
2020/12/07 18:01:44;;;;;;;14.40;8.15;;;2.50;99.90;;;;;;8309887;28;20116;-69
2020/12/07 18:05:44;;;;;;;18.90;8.98;;;2.50;99.90;;;;;;8294274;28;20034;-69
2020/12/07 18:09:45;;;;;;;14.25;8.50;;;2.20;99.90;;;;;;8285133;28;20080;-67
2020/12/07 18:13:46;;;;;;;14.20;7.88;;;2.10;99.90;;;;;;8292103;28;20040;-67
2020/12/07 18:17:46;;;;;;;14.43;7.60;;;2.10;99.90;;;;;;8293159;28;20025;-68
2020/12/07 18:21:47;;;;;;;12.73;8.23;;;2.10;99.90;;;;;;8307861;28;20075;-67
2020/12/07 18:25:47;;;;;;;15.27;8.77;;;2.10;99.90;;;;;;8293388;28;20036;-67
2020/12/07 18:29:48;;;;;;;13.52;8.27;;;2.10;99.90;;;;;;8268013;28;20093;-67
2020/12/07 18:33:48;;;;;;;14.20;9.20;;;2.00;99.90;;;;;;8279184;28;20128;-68
2020/12/07 18:37:51;;;;;;;15.10;9.50;;;2.20;99.90;;;;;;8291934;28;20072;-67
2020/12/07 18:41:53;;;;;;;16.70;9.18;;;2.30;99.90;;;;;;8291961;28;20041;-66
2020/12/07 18:45:54;;;;;;;14.73;9.02;;;2.30;99.90;;;;;;8283840;28;20065;-69
2020/12/07 18:49:54;;;;;;;14.57;9.07;;;2.40;99.90;;;;;;8291177;28;20030;-69
2020/12/07 18:53:55;;;;;;;14.10;9.05;;;2.40;99.90;;;;;;8284600;28;20125;-70
2020/12/07 18:57:56;;;;;;;15.32;9.13;;;2.30;99.90;;;;;;8286681;28;20018;-70
2020/12/07 19:01:57;;;;;;;15.68;9.23;;;2.10;99.90;;;;;;8282871;28;20017;-69
2020/12/07 19:06:02;;;;;;;17.30;10.95;;;2.10;99.90;;;;;;8303888;28;20037;-69
2020/12/07 19:10:04;;;;;;;19.00;11.80;;;2.10;99.90;;;;;;8274714;28;20072;-67
2020/12/07 19:14:05;;;;;;;17.85;10.73;;;2.20;99.90;;;;;;8285704;28;20029;-66
2020/12/07 19:18:07;;;;;;;16.98;9.85;;;2.20;99.90;;;;;;8284167;28;20022;-66
2020/12/07 19:22:08;;;;;;;18.75;11.13;;;2.10;99.90;;;;;;8281124;28;20029;-66
2020/12/07 19:26:08;;;;;;;19.67;11.40;;;2.10;99.90;;;;;;8292966;28;20391;-66
2020/12/07 19:30:09;;;;;;;20.85;11.93;;;2.20;99.90;;;;;;8285856;28;20022;-67
2020/12/07 19:34:12;;;;;;;22.23;12.43;;;2.20;99.90;;;;;;8279963;28;20041;-65
2020/12/07 19:38:13;;;;;;;21.67;12.70;;;2.20;99.90;;;;;;8279181;28;20129;-66
2020/12/07 19:42:14;;;;;;;21.95;12.35;;;2.20;99.90;;;;;;8285185;28;20053;-67
2020/12/07 19:46:14;;;;;;;23.42;13.00;;;2.20;99.90;;;;;;8273608;28;20049;-66
2020/12/07 19:50:15;;;;;;;21.83;12.48;;;2.10;99.90;;;;;;8286830;28;20036;-67
2020/12/07 19:54:17;;;;;;;22.50;12.50;;;2.20;99.90;;;;;;8288036;28;20418;-67
2020/12/07 19:58:17;;;;;;;23.92;13.15;;;2.10;99.90;;;;;;8287249;28;20101;-68
2020/12/07 20:02:18;;;;;;;22.88;12.57;;;2.10;99.90;;;;;;8274926;28;20029;-66
2020/12/07 20:06:29;;;;;;;24.00;13.00;;;2.20;99.90;;;;;;8280303;28;20034;-67
2020/12/07 20:10:29;;;;;;;27.98;14.38;;;2.10;99.90;;;;;;8276107;28;20053;-67
2020/12/07 20:14:30;;;;;;;25.70;13.43;;;2.10;99.90;;;;;;8279251;28;20061;-67
2020/12/07 20:18:31;;;;;;;25.75;13.90;;;2.10;99.90;;;;;;8283253;28;20033;-67
2020/12/07 20:22:31;;;;;;;24.67;13.30;;;2.20;99.90;;;;;;8287886;28;20386;-67
2020/12/07 20:26:32;;;;;;;26.27;14.18;;;2.10;99.90;;;;;;8282347;28;20057;-67
2020/12/07 20:30:32;;;;;;;28.50;14.82;;;2.00;99.90;;;;;;8272632;28;20030;-66
2020/12/07 20:34:33;;;;;;;30.27;15.40;;;2.10;99.90;;;;;;8286931;28;20505;-67
2020/12/07 20:38:34;;;;;;;28.27;15.15;;;2.10;99.90;;;;;;8276869;28;20512;-68
2020/12/07 20:42:34;;;;;;;31.35;15.82;;;2.10;99.90;;;;;;8283737;28;20295;-68
2020/12/07 20:46:35;;;;;;;31.92;16.55;;;2.10;99.90;;;;;;8278752;28;20069;-68
2020/12/07 20:50:35;;;;;;;31.38;15.77;;;2.10;99.90;;;;;;8285035;28;20029;-67
2020/12/07 20:54:36;;;;;;;34.85;16.35;;;2.20;99.90;;;;;;8293285;28;20018;-68
2020/12/07 20:58:37;;;;;;;33.75;16.52;;;2.00;99.90;;;;;;8294870;28;20018;-68
2020/12/07 21:02:37;;;;;;;31.63;16.90;;;2.10;99.90;;;;;;8292986;28;20030;-67
2020/12/07 21:06:38;;;;;;;38.35;18.08;;;2.10;99.90;;;;;;8291316;28;20122;-67
2020/12/07 21:10:39;;;;;;;35.03;17.38;;;2.10;99.90;;;;;;8272430;28;20033;-68
2020/12/07 21:14:39;;;;;;;37.05;17.35;;;2.00;99.90;;;;;;8285786;28;20035;-67
2020/12/07 21:18:40;;;;;;;36.92;17.25;;;2.10;99.90;;;;;;8263934;28;20117;-68
2020/12/07 21:22:40;;;;;;;35.17;16.73;;;2.10;99.90;;;;;;8262496;28;20530;-68
2020/12/07 21:26:41;;;;;;;36.78;17.85;;;2.00;99.90;;;;;;8275977;28;20038;-68
2020/12/07 21:30:42;;;;;;;36.75;17.38;;;2.00;99.90;;;;;;8276256;28;20034;-67
2020/12/07 21:34:42;;;;;;;35.15;17.85;;;2.10;99.90;;;;;;8275613;28;20042;-69
2020/12/07 21:38:43;;;;;;;41.78;18.38;;;2.00;99.90;;;;;;8279715;28;20030;-68
2020/12/07 21:42:44;;;;;;;40.17;18.35;;;2.00;99.90;;;;;;8273976;28;20519;-68
2020/12/07 21:46:44;;;;;;;39.28;18.67;;;2.00;99.90;;;;;;8263886;28;20034;-68
2020/12/07 21:50:45;;;;;;;37.03;18.73;;;2.00;99.90;;;;;;8264464;28;20524;-68
2020/12/07 21:54:47;;;;;;;40.92;19.25;;;1.90;99.90;;;;;;8264262;28;20034;-69
2020/12/07 21:58:47;;;;;;;39.67;18.05;;;2.00;99.90;;;;;;8265835;28;20576;-69
2020/12/07 22:02:48;;;;;;;43.00;18.42;;;2.00;99.90;;;;;;8277321;28;20018;-68
2020/12/07 22:06:48;;;;;;;40.22;17.95;;;2.00;99.90;;;;;;8296636;28;20498;-68